sensor_id;sensor_type;location;lat;lon;timestamp;temperature;humidity
45012;DHT22;63444;48.148;11.542;2023-09-07T00:00:48;19.60;99.90
45012;DHT22;63444;48.148;11.542;2023-09-07T00:03:14;19.60;99.90
45012;DHT22;63444;48.148;11.542;2023-09-07T00:05:40;19.60;99.90
45012;DHT22;63444;48.148;11.542;2023-09-07T00:08:06;19.50;99.90
45012;DHT22;63444;48.148;11.542;2023-09-07T00:10:34;19.50;99.90
45012;DHT22;63444;48.148;11.542;2023-09-07T00:13:03;19.40;99.90
45012;DHT22;63444;48.148;11.542;2023-09-07T00:15:30;19.40;99.90
45012;DHT22;63444;48.148;11.542;2023-09-07T00:17:56;19.30;99.90
45012;DHT22;63444;48.148;11.542;2023-09-07T00:20:23;19.40;99.90
45012;DHT22;63444;48.148;11.542;2023-09-07T00:22:49;19.40;99.90
45012;DHT22;63444;48.148;11.542;2023-09-07T00:25:16;19.30;99.90
45012;DHT22;63444;48.148;11.542;2023-09-07T00:27:41;19.30;99.90
45012;DHT22;63444;48.148;11.542;2023-09-07T00:30:08;19.20;99.90
45012;DHT22;63444;48.148;11.542;2023-09-07T00:32:36;19.20;99.90
45012;DHT22;63444;48.148;11.542;2023-09-07T00:35:03;19.20;99.90
45012;DHT22;63444;48.148;11.542;2023-09-07T00:37:28;19.10;99.90
45012;DHT22;63444;48.148;11.542;2023-09-07T00:39:55;19.10;99.90
45012;DHT22;63444;48.148;11.542;2023-09-07T00:42:21;19.10;99.90
45012;DHT22;63444;48.148;11.542;2023-09-07T00:44:46;19.00;99.90
45012;DHT22;63444;48.148;11.542;2023-09-07T00:47:14;19.10;99.90
45012;DHT22;63444;48.148;11.542;2023-09-07T00:49:41;19.00;99.90
45012;DHT22;63444;48.148;11.542;2023-09-07T00:52:10;19.00;99.90
45012;DHT22;63444;48.148;11.542;2023-09-07T00:54:39;19.10;99.90
45012;DHT22;63444;48.148;11.542;2023-09-07T00:57:06;19.00;99.90
45012;DHT22;63444;48.148;11.542;2023-09-07T00:59:33;19.00;99.90
45012;DHT22;63444;48.148;11.542;2023-09-07T01:01:59;19.00;99.90
45012;DHT22;63444;48.148;11.542;2023-09-07T01:04:25;19.00;99.90
45012;DHT22;63444;48.148;11.542;2023-09-07T01:06:56;19.00;99.90
45012;DHT22;63444;48.148;11.542;2023-09-07T01:09:26;19.10;99.90
45012;DHT22;63444;48.148;11.542;2023-09-07T01:11:53;19.10;99.90
45012;DHT22;63444;48.148;11.542;2023-09-07T01:14:19;19.10;99.90
45012;DHT22;63444;48.148;11.542;2023-09-07T01:16:45;19.10;99.90
45012;DHT22;63444;48.148;11.542;2023-09-07T01:19:11;19.10;99.90
45012;DHT22;63444;48.148;11.542;2023-09-07T01:21:39;19.00;99.90
45012;DHT22;63444;48.148;11.542;2023-09-07T01:24:07;19.00;99.90
45012;DHT22;63444;48.148;11.542;2023-09-07T01:26:33;19.00;99.90
45012;DHT22;63444;48.148;11.542;2023-09-07T01:29:00;19.00;99.90
45012;DHT22;63444;48.148;11.542;2023-09-07T01:31:27;19.00;99.90
45012;DHT22;63444;48.148;11.542;2023-09-07T01:33:53;19.00;99.90
45012;DHT22;63444;48.148;11.542;2023-09-07T01:36:19;19.00;99.90
45012;DHT22;63444;48.148;11.542;2023-09-07T01:38:46;18.90;99.90
45012;DHT22;63444;48.148;11.542;2023-09-07T01:41:12;18.90;99.90
45012;DHT22;63444;48.148;11.542;2023-09-07T01:43:37;18.90;99.90
45012;DHT22;63444;48.148;11.542;2023-09-07T01:46:03;18.80;99.90
45012;DHT22;63444;48.148;11.542;2023-09-07T01:48:28;18.80;99.90
45012;DHT22;63444;48.148;11.542;2023-09-07T01:50:54;18.70;99.90
45012;DHT22;63444;48.148;11.542;2023-09-07T01:53:20;18.60;99.90
45012;DHT22;63444;48.148;11.542;2023-09-07T01:55:46;18.60;99.90
45012;DHT22;63444;48.148;11.542;2023-09-07T01:58:13;18.60;99.90
45012;DHT22;63444;48.148;11.542;2023-09-07T02:00:38;18.60;99.90
45012;DHT22;63444;48.148;11.542;2023-09-07T02:03:05;18.60;99.90
45012;DHT22;63444;48.148;11.542;2023-09-07T02:05:31;18.60;99.90
45012;DHT22;63444;48.148;11.542;2023-09-07T02:07:58;18.60;99.90
45012;DHT22;63444;48.148;11.542;2023-09-07T02:10:24;18.60;99.90
45012;DHT22;63444;48.148;11.542;2023-09-07T02:12:49;18.60;99.90
45012;DHT22;63444;48.148;11.542;2023-09-07T02:15:15;18.60;99.90
45012;DHT22;63444;48.148;11.542;2023-09-07T02:17:41;18.60;99.90
45012;DHT22;63444;48.148;11.542;2023-09-07T02:20:10;18.60;99.90
45012;DHT22;63444;48.148;11.542;2023-09-07T02:22:37;18.60;99.90
45012;DHT22;63444;48.148;11.542;2023-09-07T02:25:02;18.60;99.90
45012;DHT22;63444;48.148;11.542;2023-09-07T02:27:31;18.60;99.90
45012;DHT22;63444;48.148;11.542;2023-09-07T02:29:57;18.60;99.90
45012;DHT22;63444;48.148;11.542;2023-09-07T02:32:24;18.50;99.90
45012;DHT22;63444;48.148;11.542;2023-09-07T02:34:49;18.50;99.90
45012;DHT22;63444;48.148;11.542;2023-09-07T02:37:17;18.40;99.90
45012;DHT22;63444;48.148;11.542;2023-09-07T02:39:43;18.40;99.90
45012;DHT22;63444;48.148;11.542;2023-09-07T02:42:09;18.40;99.90
45012;DHT22;63444;48.148;11.542;2023-09-07T02:44:34;18.40;99.90
45012;DHT22;63444;48.148;11.542;2023-09-07T02:47:01;18.40;99.90
45012;DHT22;63444;48.148;11.542;2023-09-07T02:49:26;18.40;99.90
45012;DHT22;63444;48.148;11.542;2023-09-07T02:51:52;18.40;99.90
45012;DHT22;63444;48.148;11.542;2023-09-07T02:54:18;18.40;99.90
45012;DHT22;63444;48.148;11.542;2023-09-07T02:56:44;18.40;99.90
45012;DHT22;63444;48.148;11.542;2023-09-07T02:59:09;18.40;99.90
45012;DHT22;63444;48.148;11.542;2023-09-07T03:01:35;18.40;99.90
45012;DHT22;63444;48.148;11.542;2023-09-07T03:04:00;18.40;99.90
45012;DHT22;63444;48.148;11.542;2023-09-07T03:06:26;18.40;99.90
45012;DHT22;63444;48.148;11.542;2023-09-07T03:08:51;18.40;99.90
45012;DHT22;63444;48.148;11.542;2023-09-07T03:11:20;18.40;99.90
45012;DHT22;63444;48.148;11.542;2023-09-07T03:13:45;18.40;99.90
45012;DHT22;63444;48.148;11.542;2023-09-07T03:16:11;18.40;99.90
45012;DHT22;63444;48.148;11.542;2023-09-07T03:18:36;18.40;99.90
45012;DHT22;63444;48.148;11.542;2023-09-07T03:21:02;18.40;99.90
45012;DHT22;63444;48.148;11.542;2023-09-07T03:23:29;18.30;99.90
45012;DHT22;63444;48.148;11.542;2023-09-07T03:25:56;18.30;99.90
45012;DHT22;63444;48.148;11.542;2023-09-07T03:28:21;18.30;99.90
45012;DHT22;63444;48.148;11.542;2023-09-07T03:30:47;18.30;99.90
45012;DHT22;63444;48.148;11.542;2023-09-07T03:33:13;18.30;99.90
45012;DHT22;63444;48.148;11.542;2023-09-07T03:35:39;18.20;99.90
45012;DHT22;63444;48.148;11.542;2023-09-07T03:38:06;18.20;99.90
45012;DHT22;63444;48.148;11.542;2023-09-07T03:40:31;18.20;99.90
45012;DHT22;63444;48.148;11.542;2023-09-07T03:42:57;18.20;99.90
45012;DHT22;63444;48.148;11.542;2023-09-07T03:45:23;18.20;99.90
45012;DHT22;63444;48.148;11.542;2023-09-07T03:47:48;18.10;99.90
45012;DHT22;63444;48.148;11.542;2023-09-07T03:50:14;18.10;99.90
45012;DHT22;63444;48.148;11.542;2023-09-07T03:52:40;18.10;99.90
45012;DHT22;63444;48.148;11.542;2023-09-07T03:55:06;18.00;99.90
45012;DHT22;63444;48.148;11.542;2023-09-07T03:57:32;18.10;99.90
45012;DHT22;63444;48.148;11.542;2023-09-07T03:59:59;18.10;99.90
45012;DHT22;63444;48.148;11.542;2023-09-07T04:02:25;18.10;99.90
45012;DHT22;63444;48.148;11.542;2023-09-07T04:04:53;18.10;99.90
45012;DHT22;63444;48.148;11.542;2023-09-07T04:07:19;18.00;99.90
45012;DHT22;63444;48.148;11.542;2023-09-07T04:09:46;18.00;99.90
45012;DHT22;63444;48.148;11.542;2023-09-07T04:12:12;18.00;99.90
45012;DHT22;63444;48.148;11.542;2023-09-07T04:14:38;18.00;99.90
45012;DHT22;63444;48.148;11.542;2023-09-07T04:17:04;17.90;99.90
45012;DHT22;63444;48.148;11.542;2023-09-07T04:19:30;17.90;99.90
45012;DHT22;63444;48.148;11.542;2023-09-07T04:21:57;17.90;99.90
45012;DHT22;63444;48.148;11.542;2023-09-07T04:24:23;17.90;99.90
45012;DHT22;63444;48.148;11.542;2023-09-07T04:26:48;17.80;99.90
45012;DHT22;63444;48.148;11.542;2023-09-07T04:29:15;17.80;99.90
45012;DHT22;63444;48.148;11.542;2023-09-07T04:31:41;17.80;99.90
45012;DHT22;63444;48.148;11.542;2023-09-07T04:34:07;17.80;99.90
45012;DHT22;63444;48.148;11.542;2023-09-07T04:36:33;17.70;99.90
45012;DHT22;63444;48.148;11.542;2023-09-07T04:38:58;17.70;99.90
45012;DHT22;63444;48.148;11.542;2023-09-07T04:41:24;17.60;99.90
45012;DHT22;63444;48.148;11.542;2023-09-07T04:43:50;17.70;99.90
45012;DHT22;63444;48.148;11.542;2023-09-07T04:46:15;17.70;99.90
45012;DHT22;63444;48.148;11.542;2023-09-07T04:48:41;17.70;99.90
45012;DHT22;63444;48.148;11.542;2023-09-07T04:51:10;17.70;99.90
45012;DHT22;63444;48.148;11.542;2023-09-07T04:53:38;17.60;99.90
45012;DHT22;63444;48.148;11.542;2023-09-07T04:56:05;17.60;99.90
45012;DHT22;63444;48.148;11.542;2023-09-07T04:58:31;17.60;99.90
45012;DHT22;63444;48.148;11.542;2023-09-07T05:01:08;17.60;99.90
45012;DHT22;63444;48.148;11.542;2023-09-07T05:03:35;17.60;99.90
45012;DHT22;63444;48.148;11.542;2023-09-07T05:06:01;17.70;99.90
45012;DHT22;63444;48.148;11.542;2023-09-07T05:08:28;17.60;99.90
45012;DHT22;63444;48.148;11.542;2023-09-07T05:10:58;17.70;99.90
45012;DHT22;63444;48.148;11.542;2023-09-07T05:13:25;17.70;99.90
45012;DHT22;63444;48.148;11.542;2023-09-07T05:15:52;17.70;99.90
45012;DHT22;63444;48.148;11.542;2023-09-07T05:18:18;17.70;99.90
45012;DHT22;63444;48.148;11.542;2023-09-07T05:20:45;17.60;99.90
45012;DHT22;63444;48.148;11.542;2023-09-07T05:23:12;17.60;99.90
45012;DHT22;63444;48.148;11.542;2023-09-07T05:26:07;17.70;99.90
45012;DHT22;63444;48.148;11.542;2023-09-07T05:28:33;17.70;99.90
45012;DHT22;63444;48.148;11.542;2023-09-07T05:30:59;17.70;99.90
45012;DHT22;63444;48.148;11.542;2023-09-07T05:33:24;17.70;99.90
45012;DHT22;63444;48.148;11.542;2023-09-07T05:35:50;17.70;99.90
45012;DHT22;63444;48.148;11.542;2023-09-07T05:38:15;17.70;99.90
45012;DHT22;63444;48.148;11.542;2023-09-07T05:40:43;17.80;99.90
45012;DHT22;63444;48.148;11.542;2023-09-07T05:43:10;17.80;99.90
45012;DHT22;63444;48.148;11.542;2023-09-07T05:45:40;17.90;99.90
45012;DHT22;63444;48.148;11.542;2023-09-07T05:48:06;18.00;99.90
45012;DHT22;63444;48.148;11.542;2023-09-07T05:50:34;18.20;99.90
45012;DHT22;63444;48.148;11.542;2023-09-07T05:53:00;18.30;99.90
45012;DHT22;63444;48.148;11.542;2023-09-07T05:55:25;18.40;99.90
45012;DHT22;63444;48.148;11.542;2023-09-07T05:57:53;18.60;99.90
45012;DHT22;63444;48.148;11.542;2023-09-07T06:00:19;18.70;99.90
45012;DHT22;63444;48.148;11.542;2023-09-07T06:02:45;18.90;99.90
45012;DHT22;63444;48.148;11.542;2023-09-07T06:05:11;19.00;99.90
45012;DHT22;63444;48.148;11.542;2023-09-07T06:07:37;19.10;99.90
45012;DHT22;63444;48.148;11.542;2023-09-07T06:10:02;19.20;99.90
45012;DHT22;63444;48.148;11.542;2023-09-07T06:12:31;19.30;99.90
45012;DHT22;63444;48.148;11.542;2023-09-07T06:14:56;19.30;99.90
45012;DHT22;63444;48.148;11.542;2023-09-07T06:17:22;19.30;99.90
45012;DHT22;63444;48.148;11.542;2023-09-07T06:19:47;19.30;99.90
45012;DHT22;63444;48.148;11.542;2023-09-07T06:22:13;19.30;99.90
45012;DHT22;63444;48.148;11.542;2023-09-07T06:24:39;19.20;99.90
45012;DHT22;63444;48.148;11.542;2023-09-07T06:27:04;19.30;99.90
45012;DHT22;63444;48.148;11.542;2023-09-07T06:29:30;19.30;99.90
45012;DHT22;63444;48.148;11.542;2023-09-07T06:31:55;19.40;99.90
45012;DHT22;63444;48.148;11.542;2023-09-07T06:34:21;19.30;99.90
45012;DHT22;63444;48.148;11.542;2023-09-07T06:36:46;19.40;99.90
45012;DHT22;63444;48.148;11.542;2023-09-07T06:39:12;19.30;99.90
45012;DHT22;63444;48.148;11.542;2023-09-07T06:41:38;19.30;99.90
45012;DHT22;63444;48.148;11.542;2023-09-07T06:44:03;19.30;99.90
45012;DHT22;63444;48.148;11.542;2023-09-07T06:46:29;19.30;99.90
45012;DHT22;63444;48.148;11.542;2023-09-07T06:48:54;19.30;99.90
45012;DHT22;63444;48.148;11.542;2023-09-07T06:51:20;19.40;99.90
45012;DHT22;63444;48.148;11.542;2023-09-07T06:53:45;19.50;99.90
45012;DHT22;63444;48.148;11.542;2023-09-07T06:56:11;19.50;99.90
45012;DHT22;63444;48.148;11.542;2023-09-07T06:58:37;19.50;99.90
45012;DHT22;63444;48.148;11.542;2023-09-07T07:01:02;19.60;99.90
45012;DHT22;63444;48.148;11.542;2023-09-07T07:03:30;19.70;99.90
45012;DHT22;63444;48.148;11.542;2023-09-07T07:05:57;19.90;99.90
45012;DHT22;63444;48.148;11.542;2023-09-07T07:08:23;20.20;99.90
45012;DHT22;63444;48.148;11.542;2023-09-07T07:10:49;20.40;99.90
45012;DHT22;63444;48.148;11.542;2023-09-07T07:13:14;20.70;99.90
45012;DHT22;63444;48.148;11.542;2023-09-07T07:15:41;20.90;99.90
45012;DHT22;63444;48.148;11.542;2023-09-07T07:18:07;21.10;99.90
45012;DHT22;63444;48.148;11.542;2023-09-07T07:20:37;21.50;99.90
45012;DHT22;63444;48.148;11.542;2023-09-07T07:23:04;21.70;99.90
45012;DHT22;63444;48.148;11.542;2023-09-07T07:25:29;21.90;99.90
45012;DHT22;63444;48.148;11.542;2023-09-07T07:27:58;22.10;99.90
45012;DHT22;63444;48.148;11.542;2023-09-07T07:30:27;22.30;99.90
45012;DHT22;63444;48.148;11.542;2023-09-07T07:32:53;22.50;99.90
45012;DHT22;63444;48.148;11.542;2023-09-07T07:35:19;22.70;99.90
45012;DHT22;63444;48.148;11.542;2023-09-07T07:37:44;22.90;99.90
45012;DHT22;63444;48.148;11.542;2023-09-07T07:40:10;23.10;99.90
45012;DHT22;63444;48.148;11.542;2023-09-07T07:42:36;23.30;99.90
45012;DHT22;63444;48.148;11.542;2023-09-07T07:45:01;23.50;99.90
45012;DHT22;63444;48.148;11.542;2023-09-07T07:47:27;23.70;99.90
45012;DHT22;63444;48.148;11.542;2023-09-07T07:49:53;23.80;99.90
45012;DHT22;63444;48.148;11.542;2023-09-07T07:52:18;24.00;99.90
45012;DHT22;63444;48.148;11.542;2023-09-07T07:54:44;24.00;99.90
45012;DHT22;63444;48.148;11.542;2023-09-07T07:57:09;24.10;99.90
45012;DHT22;63444;48.148;11.542;2023-09-07T07:59:36;24.20;99.90
45012;DHT22;63444;48.148;11.542;2023-09-07T08:02:01;24.40;99.90
45012;DHT22;63444;48.148;11.542;2023-09-07T08:04:28;24.50;99.90
45012;DHT22;63444;48.148;11.542;2023-09-07T08:06:53;24.80;99.90
45012;DHT22;63444;48.148;11.542;2023-09-07T08:09:23;24.90;99.90
45012;DHT22;63444;48.148;11.542;2023-09-07T08:11:49;25.10;99.90
45012;DHT22;63444;48.148;11.542;2023-09-07T08:14:14;25.10;99.90
45012;DHT22;63444;48.148;11.542;2023-09-07T08:16:40;25.20;99.90
45012;DHT22;63444;48.148;11.542;2023-09-07T08:19:05;25.30;99.90
45012;DHT22;63444;48.148;11.542;2023-09-07T08:21:31;25.40;99.90
45012;DHT22;63444;48.148;11.542;2023-09-07T08:23:56;25.30;99.70
45012;DHT22;63444;48.148;11.542;2023-09-07T08:26:22;25.40;99.80
45012;DHT22;63444;48.148;11.542;2023-09-07T08:28:47;25.50;99.60
45012;DHT22;63444;48.148;11.542;2023-09-07T08:31:13;25.60;99.10
45012;DHT22;63444;48.148;11.542;2023-09-07T08:33:46;25.70;99.20
45012;DHT22;63444;48.148;11.542;2023-09-07T08:36:11;25.80;98.90
45012;DHT22;63444;48.148;11.542;2023-09-07T08:38:38;25.90;98.80
45012;DHT22;63444;48.148;11.542;2023-09-07T08:41:03;25.90;98.70
45012;DHT22;63444;48.148;11.542;2023-09-07T08:43:33;25.90;98.60
45012;DHT22;63444;48.148;11.542;2023-09-07T08:46:17;26.00;98.60
45012;DHT22;63444;48.148;11.542;2023-09-07T08:48:43;26.10;98.30
45012;DHT22;63444;48.148;11.542;2023-09-07T08:51:12;26.00;98.30
45012;DHT22;63444;48.148;11.542;2023-09-07T08:53:40;26.00;98.60
45012;DHT22;63444;48.148;11.542;2023-09-07T08:56:07;26.00;98.40
45012;DHT22;63444;48.148;11.542;2023-09-07T08:58:38;26.10;98.40
45012;DHT22;63444;48.148;11.542;2023-09-07T09:01:05;26.20;98.20
45012;DHT22;63444;48.148;11.542;2023-09-07T09:03:31;26.20;98.20
45012;DHT22;63444;48.148;11.542;2023-09-07T09:05:57;26.30;98.30
45012;DHT22;63444;48.148;11.542;2023-09-07T09:08:22;26.40;98.00
45012;DHT22;63444;48.148;11.542;2023-09-07T09:11:02;26.40;97.90
45012;DHT22;63444;48.148;11.542;2023-09-07T09:13:31;26.50;97.90
45012;DHT22;63444;48.148;11.542;2023-09-07T09:15:59;26.50;97.90
45012;DHT22;63444;48.148;11.542;2023-09-07T09:18:26;26.60;97.90
45012;DHT22;63444;48.148;11.542;2023-09-07T09:20:53;26.70;97.90
45012;DHT22;63444;48.148;11.542;2023-09-07T09:23:20;26.70;97.90
45012;DHT22;63444;48.148;11.542;2023-09-07T09:25:48;26.80;97.80
45012;DHT22;63444;48.148;11.542;2023-09-07T09:28:14;26.90;97.30
45012;DHT22;63444;48.148;11.542;2023-09-07T09:30:41;27.00;97.10
45012;DHT22;63444;48.148;11.542;2023-09-07T09:33:09;27.00;97.40
45012;DHT22;63444;48.148;11.542;2023-09-07T09:35:36;27.10;97.30
45012;DHT22;63444;48.148;11.542;2023-09-07T09:38:02;27.00;97.40
45012;DHT22;63444;48.148;11.542;2023-09-07T09:40:34;27.00;97.40
45012;DHT22;63444;48.148;11.542;2023-09-07T09:43:03;27.00;97.50
45012;DHT22;63444;48.148;11.542;2023-09-07T09:45:29;26.90;97.60
45012;DHT22;63444;48.148;11.542;2023-09-07T09:47:55;26.90;97.70
45012;DHT22;63444;48.148;11.542;2023-09-07T09:50:26;26.90;97.60
45012;DHT22;63444;48.148;11.542;2023-09-07T09:52:55;26.90;97.60
45012;DHT22;63444;48.148;11.542;2023-09-07T09:55:21;26.90;97.60
45012;DHT22;63444;48.148;11.542;2023-09-07T09:57:47;27.00;97.60
45012;DHT22;63444;48.148;11.542;2023-09-07T10:00:13;27.10;97.40
45012;DHT22;63444;48.148;11.542;2023-09-07T10:02:44;27.10;97.40
45012;DHT22;63444;48.148;11.542;2023-09-07T10:05:11;27.20;97.30
45012;DHT22;63444;48.148;11.542;2023-09-07T10:07:51;27.10;97.40
45012;DHT22;63444;48.148;11.542;2023-09-07T10:10:19;27.20;97.50
45012;DHT22;63444;48.148;11.542;2023-09-07T10:12:52;27.30;97.30
45012;DHT22;63444;48.148;11.542;2023-09-07T10:15:25;27.40;97.40
45012;DHT22;63444;48.148;11.542;2023-09-07T10:18:06;27.40;97.10
45012;DHT22;63444;48.148;11.542;2023-09-07T10:23:19;27.40;97.20
45012;DHT22;63444;48.148;11.542;2023-09-07T10:25:53;27.30;97.10
45012;DHT22;63444;48.148;11.542;2023-09-07T10:28:23;27.40;97.00
45012;DHT22;63444;48.148;11.542;2023-09-07T10:33:25;27.50;97.00
45012;DHT22;63444;48.148;11.542;2023-09-07T10:35:51;27.60;96.90
45012;DHT22;63444;48.148;11.542;2023-09-07T10:38:16;27.60;96.80
45012;DHT22;63444;48.148;11.542;2023-09-07T10:40:45;27.60;96.80
45012;DHT22;63444;48.148;11.542;2023-09-07T10:43:13;27.60;96.80
45012;DHT22;63444;48.148;11.542;2023-09-07T10:45:39;27.70;97.00
45012;DHT22;63444;48.148;11.542;2023-09-07T10:48:05;27.70;96.90
45012;DHT22;63444;48.148;11.542;2023-09-07T10:50:42;27.70;96.50
45012;DHT22;63444;48.148;11.542;2023-09-07T10:53:08;27.70;96.40
45012;DHT22;63444;48.148;11.542;2023-09-07T10:55:37;27.60;96.40
45012;DHT22;63444;48.148;11.542;2023-09-07T10:58:08;27.70;96.50
45012;DHT22;63444;48.148;11.542;2023-09-07T11:00:35;27.60;96.30
45012;DHT22;63444;48.148;11.542;2023-09-07T11:03:07;27.60;96.40
45012;DHT22;63444;48.148;11.542;2023-09-07T11:05:35;27.60;96.60
45012;DHT22;63444;48.148;11.542;2023-09-07T11:08:03;27.50;96.70
45012;DHT22;63444;48.148;11.542;2023-09-07T11:10:33;27.50;96.90
45012;DHT22;63444;48.148;11.542;2023-09-07T11:13:02;27.50;96.80
45012;DHT22;63444;48.148;11.542;2023-09-07T11:15:29;27.60;96.60
45012;DHT22;63444;48.148;11.542;2023-09-07T11:17:56;27.60;96.60
45012;DHT22;63444;48.148;11.542;2023-09-07T11:20:23;27.60;96.80
45012;DHT22;63444;48.148;11.542;2023-09-07T11:22:49;27.60;96.80
45012;DHT22;63444;48.148;11.542;2023-09-07T11:25:15;27.50;96.90
45012;DHT22;63444;48.148;11.542;2023-09-07T11:27:40;27.40;96.80
45012;DHT22;63444;48.148;11.542;2023-09-07T11:30:06;27.40;96.70
45012;DHT22;63444;48.148;11.542;2023-09-07T11:32:34;27.40;96.90
45012;DHT22;63444;48.148;11.542;2023-09-07T11:35:00;27.40;96.90
45012;DHT22;63444;48.148;11.542;2023-09-07T11:37:26;27.40;96.80
45012;DHT22;63444;48.148;11.542;2023-09-07T11:39:51;27.40;96.90
45012;DHT22;63444;48.148;11.542;2023-09-07T11:42:17;27.40;96.80
45012;DHT22;63444;48.148;11.542;2023-09-07T11:44:43;27.30;97.10
45012;DHT22;63444;48.148;11.542;2023-09-07T11:47:08;27.30;97.20
45012;DHT22;63444;48.148;11.542;2023-09-07T11:49:34;27.30;97.10
45012;DHT22;63444;48.148;11.542;2023-09-07T11:52:00;27.30;97.10
45012;DHT22;63444;48.148;11.542;2023-09-07T11:54:25;27.30;97.00
45012;DHT22;63444;48.148;11.542;2023-09-07T11:56:51;27.20;97.20
45012;DHT22;63444;48.148;11.542;2023-09-07T11:59:17;27.20;97.30
45012;DHT22;63444;48.148;11.542;2023-09-07T12:01:43;27.10;97.40
45012;DHT22;63444;48.148;11.542;2023-09-07T12:04:09;27.00;97.40
45012;DHT22;63444;48.148;11.542;2023-09-07T12:06:35;26.90;97.50
45012;DHT22;63444;48.148;11.542;2023-09-07T12:09:01;26.80;97.50
45012;DHT22;63444;48.148;11.542;2023-09-07T12:11:27;26.80;97.60
45012;DHT22;63444;48.148;11.542;2023-09-07T12:13:53;26.70;97.70
45012;DHT22;63444;48.148;11.542;2023-09-07T12:16:18;26.60;97.60
45012;DHT22;63444;48.148;11.542;2023-09-07T12:18:44;26.60;97.90
45012;DHT22;63444;48.148;11.542;2023-09-07T12:21:10;26.50;98.00
45012;DHT22;63444;48.148;11.542;2023-09-07T12:23:35;26.50;98.10
45012;DHT22;63444;48.148;11.542;2023-09-07T12:26:01;26.60;97.80
45012;DHT22;63444;48.148;11.542;2023-09-07T12:28:30;26.60;97.70
45012;DHT22;63444;48.148;11.542;2023-09-07T12:30:56;26.60;97.60
45012;DHT22;63444;48.148;11.542;2023-09-07T12:33:21;26.70;97.60
45012;DHT22;63444;48.148;11.542;2023-09-07T12:35:47;26.70;97.50
45012;DHT22;63444;48.148;11.542;2023-09-07T12:38:12;26.70;97.40
45012;DHT22;63444;48.148;11.542;2023-09-07T12:40:42;26.70;97.40
45012;DHT22;63444;48.148;11.542;2023-09-07T12:43:09;26.70;97.40
45012;DHT22;63444;48.148;11.542;2023-09-07T12:45:34;26.60;97.30
45012;DHT22;63444;48.148;11.542;2023-09-07T12:48:00;26.60;97.30
45012;DHT22;63444;48.148;11.542;2023-09-07T12:50:27;26.60;97.40
45012;DHT22;63444;48.148;11.542;2023-09-07T12:52:52;26.60;97.40
45012;DHT22;63444;48.148;11.542;2023-09-07T12:55:19;26.60;97.50
45012;DHT22;63444;48.148;11.542;2023-09-07T12:57:45;26.50;97.40
45012;DHT22;63444;48.148;11.542;2023-09-07T13:00:11;26.50;97.40
45012;DHT22;63444;48.148;11.542;2023-09-07T13:02:37;26.50;97.40
45012;DHT22;63444;48.148;11.542;2023-09-07T13:05:03;26.50;97.30
45012;DHT22;63444;48.148;11.542;2023-09-07T13:07:31;26.50;96.80
45012;DHT22;63444;48.148;11.542;2023-09-07T13:09:58;26.50;96.90
45012;DHT22;63444;48.148;11.542;2023-09-07T13:12:23;26.40;96.80
45012;DHT22;63444;48.148;11.542;2023-09-07T13:14:49;26.40;96.70
45012;DHT22;63444;48.148;11.542;2023-09-07T13:17:15;26.40;96.90
45012;DHT22;63444;48.148;11.542;2023-09-07T13:19:41;26.40;96.90
45012;DHT22;63444;48.148;11.542;2023-09-07T13:22:06;26.40;96.70
45012;DHT22;63444;48.148;11.542;2023-09-07T13:24:33;26.40;96.50
45012;DHT22;63444;48.148;11.542;2023-09-07T13:26:58;26.30;96.30
45012;DHT22;63444;48.148;11.542;2023-09-07T13:29:24;26.30;96.30
45012;DHT22;63444;48.148;11.542;2023-09-07T13:31:51;26.30;96.10
45012;DHT22;63444;48.148;11.542;2023-09-07T13:34:20;26.30;95.80
45012;DHT22;63444;48.148;11.542;2023-09-07T13:36:46;26.30;95.20
45012;DHT22;63444;48.148;11.542;2023-09-07T13:39:11;26.30;95.20
45012;DHT22;63444;48.148;11.542;2023-09-07T13:41:37;26.30;95.10
45012;DHT22;63444;48.148;11.542;2023-09-07T13:44:03;26.30;94.40
45012;DHT22;63444;48.148;11.542;2023-09-07T13:46:28;26.30;94.40
45012;DHT22;63444;48.148;11.542;2023-09-07T13:48:54;26.30;94.20
45012;DHT22;63444;48.148;11.542;2023-09-07T13:51:20;26.30;93.80
45012;DHT22;63444;48.148;11.542;2023-09-07T13:53:46;26.20;93.60
45012;DHT22;63444;48.148;11.542;2023-09-07T13:56:11;26.20;93.80
45012;DHT22;63444;48.148;11.542;2023-09-07T13:58:37;26.20;93.50
45012;DHT22;63444;48.148;11.542;2023-09-07T14:01:02;26.20;93.30
45012;DHT22;63444;48.148;11.542;2023-09-07T14:03:29;26.20;93.30
45012;DHT22;63444;48.148;11.542;2023-09-07T14:05:54;26.30;93.60
45012;DHT22;63444;48.148;11.542;2023-09-07T14:08:20;26.30;93.30
45012;DHT22;63444;48.148;11.542;2023-09-07T14:10:49;26.30;93.00
45012;DHT22;63444;48.148;11.542;2023-09-07T14:13:15;26.30;93.30
45012;DHT22;63444;48.148;11.542;2023-09-07T14:15:40;26.30;93.20
45012;DHT22;63444;48.148;11.542;2023-09-07T14:18:06;26.30;93.20
45012;DHT22;63444;48.148;11.542;2023-09-07T14:20:33;26.30;92.80
45012;DHT22;63444;48.148;11.542;2023-09-07T14:22:58;26.20;92.70
45012;DHT22;63444;48.148;11.542;2023-09-07T14:25:26;26.20;92.60
45012;DHT22;63444;48.148;11.542;2023-09-07T14:27:52;26.20;92.80
45012;DHT22;63444;48.148;11.542;2023-09-07T14:30:17;26.20;92.60
45012;DHT22;63444;48.148;11.542;2023-09-07T14:32:44;26.10;92.70
45012;DHT22;63444;48.148;11.542;2023-09-07T14:35:10;26.10;92.60
45012;DHT22;63444;48.148;11.542;2023-09-07T14:37:36;26.10;92.80
45012;DHT22;63444;48.148;11.542;2023-09-07T14:40:02;26.10;92.80
45012;DHT22;63444;48.148;11.542;2023-09-07T14:42:28;26.10;93.00
45012;DHT22;63444;48.148;11.542;2023-09-07T14:44:53;26.10;93.20
45012;DHT22;63444;48.148;11.542;2023-09-07T14:47:19;26.10;93.10
45012;DHT22;63444;48.148;11.542;2023-09-07T14:49:51;26.10;93.30
45012;DHT22;63444;48.148;11.542;2023-09-07T14:52:17;26.10;93.20
45012;DHT22;63444;48.148;11.542;2023-09-07T14:54:43;26.10;93.20
45012;DHT22;63444;48.148;11.542;2023-09-07T14:57:09;26.10;93.20
45012;DHT22;63444;48.148;11.542;2023-09-07T14:59:35;26.10;93.10
45012;DHT22;63444;48.148;11.542;2023-09-07T15:02:00;26.10;92.90
45012;DHT22;63444;48.148;11.542;2023-09-07T15:04:26;26.10;92.90
45012;DHT22;63444;48.148;11.542;2023-09-07T15:06:52;26.10;92.90
45012;DHT22;63444;48.148;11.542;2023-09-07T15:09:17;26.10;93.00
45012;DHT22;63444;48.148;11.542;2023-09-07T15:11:43;26.10;92.90
45012;DHT22;63444;48.148;11.542;2023-09-07T15:14:08;26.10;92.50
45012;DHT22;63444;48.148;11.542;2023-09-07T15:16:34;26.10;92.40